Latest Coastal Weather Observations for Walpole North

IDW60701

Issued at 11:02 am WST Tuesday 25 June 2024 (issued every 10 minutes, with the page automatically refreshed every 10 minutes)

About coastal observations | Map of coastal stations | Coastal observations for WA | Marine services | Other Formats
Station Details ID: 009998 Name: NORTH WALPOLE Lat: -34.95 Lon: 116.72 Height: 73.0 m
Data from the previous 72 hours. | See also: Recent months at Walpole North
Date/Time
WST
Wind Sea
Height
m
Swell Vis
km
Cloud Weather Temp
°C
Press
MSL
hPa
Rain since
9am
mm
Dir  Spd
kts
Gust
kts
Height
m
Period
s
Dir
25/11:00am CALM 0 3 - - - - - - - 11.3 1017.4 0.0
25/10:30am - 3 4 - - - - - - - 11.1 1017.6 0.0
25/10:00am - 3 4 - - - - - - - 10.6 1017.7 0.0
25/09:30am - 4 6 - - - - - - - 10.4 1017.6 0.0
25/09:00am - 6 9 - - - - - - - 8.9 1017.7 6.0
25/08:30am - 1 3 - - - - - - - 8.1 1017.9 6.0
25/08:00am - 5 8 - - - - - - - 8.5 1017.8 6.0
25/07:30am - 4 7 - - - - - - - 8.6 1018.0 6.0
25/07:00am - 5 6 - - - - - - - 8.6 1018.3 6.0
25/06:30am CALM 0 0 - - - - - - - 8.0 1018.3 6.0
25/06:00am - 3 4 - - - - - - - 8.5 1018.4 5.8
25/05:30am - 7 9 - - - - - - - 8.9 1018.6 5.8
25/05:00am - 7 9 - - - - - - - 8.8 1018.8 5.8
25/04:30am - 3 6 - - - - - - - 9.1 1019.2 5.8
25/04:00am - 7 9 - - - - - - - 9.0 1019.2 5.8
25/03:30am - 4 5 - - - - - - - 9.1 1019.6 5.8
25/03:00am CALM 0 0 - - - - - - - 9.2 1019.9 5.8
25/02:30am - 3 4 - - - - - - - 9.1 1019.9 5.8
25/02:00am - 2 4 - - - - - - - 9.0 1020.1 5.8
25/01:30am - 3 4 - - - - - - - 8.9 1020.4 5.8
25/01:00am CALM 0 3 - - - - - - - 8.9 1020.7 5.8
25/12:30am - 4 5 - - - - - - - 9.0 1021.1 5.8
25/12:00am - 5 7 - - - - - - - 9.3 1021.7 5.8
 
Date/Time
WST
Wind Sea
Height
m
Swell Vis
km
Cloud Weather Temp
°C
Press
MSL
hPa
Rain since
9am
mm
Dir  Spd
kts
Gust
kts
Height
m
Period
s
Dir
24/11:30pm CALM 0 0 - - - - - - - 9.3 1021.9 5.8
24/11:00pm CALM 0 3 - - - - - - - 9.3 1022.1 5.8
24/10:30pm CALM 0 0 - - - - - - - 9.7 1022.4 5.6
24/10:00pm - 4 5 - - - - - - - 9.7 1022.5 5.6
24/09:30pm - 4 4 - - - - - - - 9.8 1022.6 5.6
24/09:00pm CALM 0 3 - - - - - - Recent precip. 9.9 1023.0 5.4
24/08:30pm - 1 4 - - - - - - - 10.3 1023.3 5.4
24/08:00pm - 6 7 - - - - - - - 10.3 1023.4 4.8
24/07:30pm - 4 6 - - - - - - - 10.3 1023.6 4.2
24/07:00pm - 2 6 - - - - - - - 10.6 1023.3 3.0
24/06:30pm - 4 5 - - - - - - - 10.6 1023.2 2.6
24/06:00pm CALM 0 0 - - - - - - - 10.8 1023.1 2.4
24/05:30pm - 4 5 - - - - - - - 11.0 1023.3 2.4
24/05:00pm - 1 4 - - - - - - - 11.2 1023.4 2.4
24/04:30pm - 4 5 - - - - - - - 11.3 1023.6 2.2
24/04:00pm - 3 5 - - - - - - - 11.6 1023.9 1.8
24/03:30pm - 4 5 - - - - - - - 11.3 1023.9 1.4
24/03:00pm - 1 5 - - - - - - Recent precip. 11.7 1023.8 1.0
24/02:30pm - 5 8 - - - - - - - 11.6 1024.0 0.6
24/02:00pm - 9 16 - - - - - - - 12.6 1023.9 0.6
24/01:30pm - 9 15 - - - - - - - 13.8 1023.7 0.6
24/01:00pm - 10 15 - - - - - - - 14.3 1024.1 0.6
24/12:30pm - 6 15 - - - - - - - 13.9 1024.4 0.6
24/12:00pm - 5 10 - - - - - - - 13.7 1024.5 0.6
24/11:30am - 5 9 - - - - - - - 13.3 1025.1 0.6
24/11:00am - 5 14 - - - - - - - 13.2 1025.5 0.6
24/10:30am - 7 11 - - - - - - - 11.3 1025.9 0.6
24/10:00am - 6 10 - - - - - - - 12.8 1025.9 0.0
24/09:30am - 5 8 - - - - - - - 11.7 1025.9 0.0
24/09:00am - 4 7 - - - - - - - 11.5 1025.8 11.2
24/08:30am - 3 5 - - - - - - - 11.0 1025.6 11.2
24/08:00am - 4 6 - - - - - - - 10.3 1025.4 11.2
24/07:30am - 5 8 - - - - - - - 10.4 1025.5 11.2
24/07:00am - 7 16 - - - - - - - 10.8 1025.4 11.2
24/06:30am - 5 8 - - - - - - - 10.6 1025.2 11.0
24/06:00am - 6 10 - - - - - - Recent precip. 10.9 1024.9 11.0
24/05:30am - 8 17 - - - - - - - 10.6 1024.7 10.8
24/05:00am - 5 9 - - - - - - - 10.6 1024.6 10.8
24/04:30am - 9 18 - - - - - - - 11.0 1024.7 10.6
24/04:00am - 7 12 - - - - - - - 10.5 1024.9 10.4
24/03:30am - 5 8 - - - - - - - 11.0 1025.1 10.2
24/03:00am - 10 16 - - - - - - - 11.3 1025.2 10.0
24/02:30am - 6 13 - - - - - - - 11.1 1025.1 10.0
24/02:00am - 3 6 - - - - - - - 11.1 1025.1 10.0
24/01:30am - 5 13 - - - - - - - 11.1 1025.2 8.8
24/01:00am - 5 9 - - - - - - - 11.2 1025.2 7.8
24/12:30am - 3 6 - - - - - - - 10.9 1025.3 7.8
24/12:00am - 4 6 - - - - - - Recent precip. 11.1 1025.7 7.8
 
Date/Time
WST
Wind Sea
Height
m
Swell Vis
km
Cloud Weather Temp
°C
Press
MSL
hPa
Rain since
9am
mm
Dir  Spd
kts
Gust
kts
Height
m
Period
s
Dir
23/11:30pm - 4 13 - - - - - - - 11.1 1025.9 7.4
23/11:00pm - 5 7 - - - - - - - 10.9 1026.0 6.6
23/10:30pm - 5 6 - - - - - - - 10.7 1026.0 6.4
23/10:00pm - 5 12 - - - - - - - 11.3 1026.0 6.4
23/09:30pm - 5 9 - - - - - - - 11.4 1026.2 5.4
23/09:00pm - 4 6 - - - - - - Recent precip. 11.0 1026.3 5.0
23/08:30pm - 5 9 - - - - - - - 11.2 1026.4 4.6
23/08:00pm - 4 6 - - - - - - - 11.3 1026.3 4.6
23/07:30pm - 5 13 - - - - - - - 11.3 1026.2 3.2
23/07:00pm - 4 5 - - - - - - - 11.2 1026.3 2.4
23/06:30pm - 4 8 - - - - - - - 11.2 1026.2 1.4
23/06:00pm - 6 11 - - - - - - Rain 11.6 1026.3 1.4
23/05:30pm - 5 7 - - - - - - - 11.8 1026.0 0.4
23/05:00pm - 5 10 - - - - - - - 12.2 1025.8 0.2
23/04:30pm - 5 10 - - - - - - - 13.4 1025.6 0.2
23/04:00pm - 7 11 - - - - - - - 14.5 1025.7 0.2
23/03:30pm - 8 13 - - - - - - - 14.2 1025.5 0.2
23/03:00pm - 8 14 - - - - - - - 14.9 1025.3 0.2
23/02:30pm - 6 13 - - - - - - - 15.0 1025.1 0.2
23/02:00pm - 9 16 - - - - - - - 15.7 1025.1 0.2
23/01:30pm - 8 14 - - - - - - - 15.6 1025.5 0.0
23/01:00pm - 8 13 - - - - - - - 14.7 1025.8 0.0
23/12:30pm - 7 13 - - - - - - - 14.3 1025.9 0.0
23/12:00pm - 9 17 - - - - - - - 14.3 1025.9 0.0
23/11:30am - 6 10 - - - - - - - 15.1 1026.0 0.0
23/11:00am - 7 13 - - - - - - - 14.6 1026.1 0.0
23/10:30am - 9 15 - - - - - - - 13.5 1026.1 0.0
23/10:00am - 6 11 - - - - - - - 14.0 1025.9 0.0
23/09:30am - 10 16 - - - - - - - 13.4 1025.7 0.0
23/09:00am - 8 13 - - - - - - - 12.9 1025.3 5.0
23/08:30am - 7 16 - - - - - - - 12.0 1025.0 5.0
23/08:00am - 6 11 - - - - - - - 12.2 1024.5 5.0
23/07:30am - 7 12 - - - - - - - 11.7 1024.4 5.0
23/07:00am - 8 17 - - - - - - - 12.4 1024.0 5.0
23/06:30am - 9 17 - - - - - - - 12.4 1023.6 5.0
23/06:00am - 8 16 - - - - - - - 12.6 1023.2 5.0
23/05:30am - 8 14 - - - - - - - 12.5 1022.8 5.0
23/05:00am - 7 16 - - - - - - - 12.2 1022.6 5.0
23/04:30am - 8 14 - - - - - - - 11.9 1022.5 5.0
23/04:00am - 6 12 - - - - - - - 10.8 1022.6 5.0
23/03:30am - 8 15 - - - - - - - 11.1 1022.6 4.6
23/03:00am - 8 16 - - - - - - - 11.5 1022.4 4.4
23/02:30am - 6 10 - - - - - - - 12.2 1022.1 4.4
23/02:00am - 6 9 - - - - - - - 11.2 1022.1 4.4
23/01:30am - 11 17 - - - - - - - 11.7 1022.2 4.0
23/01:00am - 7 14 - - - - - - - 12.7 1021.8 4.0
23/12:30am - 10 19 - - - - - - - 13.2 1021.6 4.0
23/12:00am - 10 17 - - - - - - - 13.0 1021.6 4.0
 
Date/Time
WST
Wind Sea
Height
m
Swell Vis
km
Cloud Weather Temp
°C
Press
MSL
hPa
Rain since
9am
mm
Dir  Spd
kts
Gust
kts
Height
m
Period
s
Dir
22/11:30pm - 8 13 - - - - - - - 12.9 1021.5 4.0
22/11:00pm - 8 17 - - - - - - - 13.0 1021.5 4.0
22/10:30pm - 9 19 - - - - - - - 12.8 1021.3 4.0
22/10:00pm - 8 14 - - - - - - - 12.6 1021.2 4.0
22/09:30pm - 11 20 - - - - - - - 12.7 1020.8 4.0
22/09:00pm - 9 14 - - - - - - - 12.8 1020.7 4.0
22/08:30pm - 10 19 - - - - - - - 13.0 1020.2 4.0
22/08:00pm - 11 23 - - - - - - - 12.9 1020.1 4.0
22/07:30pm - 13 23 - - - - - - - 12.9 1019.9 4.0
22/07:00pm - 13 22 - - - - - - - 12.8 1019.5 4.0
22/06:30pm - 11 20 - - - - - - - 12.5 1019.1 4.0
22/06:00pm - 10 18 - - - - - - - 12.4 1018.8 4.0
22/05:30pm - 12 23 - - - - - - - 12.3 1018.3 4.0
22/05:00pm - 9 15 - - - - - - - 12.2 1017.9 4.0
22/04:30pm - 9 13 - - - - - - - 11.5 1017.7 4.0
22/04:00pm - 13 21 - - - - - - - 11.2 1017.8 3.8
22/03:30pm - 14 26 - - - - - - - 13.6 1017.3 3.8
22/03:00pm - 15 29 - - - - - - - 13.1 1016.7 3.8
22/02:30pm - 14 29 - - - - - - - 13.1 1016.4 3.8
22/02:00pm - 16 28 - - - - - - - 13.3 1016.3 3.8
22/01:30pm - 16 30 - - - - - - - 13.3 1015.9 3.8
22/01:00pm - 16 29 - - - - - - - 12.5 1015.8 3.8
22/12:30pm - 17 34 - - - - - - - 11.3 1015.8 3.8
22/12:00pm - 21 37 - - - - - - Recent precip. 8.9 1016.1 3.8
22/11:30am - 15 23 - - - - - - - 13.2 1015.3 1.2

Other formats

Comma delimited format used in spreadsheet applications
http://www.bom.gov.au/fwo/IDW60701/IDW60701.95647.axf

JavaScript Object Notation format (JSON) in row-major order
http://www.bom.gov.au/fwo/IDW60701/IDW60701.95647.json

Data quality

Most of these data are generated automatically and are frequently updated. Quality checks on data are not normally performed. It is possible for incorrect values to appear. Refer to information at About Latest Weather Observations and please check the disclaimer before using these data.